Tucumcari ASC Data

Air Temperature RH Wind Speed Wind Direction Precipitation Solar Radiation Soil Temperature (10cm)
Date Time Max Min Mean Max Min Mean Max Mean Mean Total Total Max Min Mean
US/Mountain F F F % % % MPH MPH deg. in. MJ/m^2 F F F
2019-12-14 01:00:00 39.91 36.82 37.99 55.7 49.21 52.5 5.45 2.77 319.5 0.0 0.000179245 45.12 44.31 44.71
2019-12-14 02:00:00 38.8 35.06 36.95 60.74 51.47 55.95 6.34 2.58 35.61 0.0 6.112e-06 44.31 43.47 43.91
2019-12-14 03:00:00 36.29 31.38 34.2 67.96 58.11 62.14 5.63 2.32 74.44 0.0 0.0 43.48 42.63 43.07
2019-12-14 04:00:00 32.75 31.01 31.57 69.62 65.45 68.06 4.02 1.51 152.3 0.0 0.0 42.63 41.73 42.17
2019-12-14 05:00:00 33.74 31.64 33.03 68.25 60.39 63.16 4.38 1.94 92.9 0.0 0.0 41.73 40.98 41.34
2019-12-14 06:00:00 33.37 28.81 30.93 72.42 60.32 66.99 3.66 1.76 150.0 0.0 0.0 40.96 40.3 40.65
2019-12-14 07:00:00 30.54 28.93 29.8 72.39 68.32 70.49 5.27 2.91 77.96 0.0 0.005376956 40.3 39.6 39.94
2019-12-14 08:00:00 34.04 28.57 30.83 74.2 63.05 69.84 4.74 1.97 226.5 0.0 0.3094652 39.61 39.36 39.45
2019-12-14 09:00:00 42.24 33.37 36.45 65.99 48.46 58.88 7.42 3.62 342.7 0.0 0.9390575 41.05 39.59 40.25
2019-12-14 10:00:00 48.58 42.12 45.56 48.42 39.41 43.78 5.81 2.65 66.44 0.0 1.489021 44.32 41.06 42.61
2019-12-14 11:00:00 53.15 47.64 50.43 40.26 35.4 37.74 6.17 2.39 288.4 0.0 1.883644 47.89 44.32 46.09
2019-12-14 12:00:00 56.37 51.78 54.12 36.86 32.21 34.46 7.06 3.12 307.0 0.0 2.041183 51.33 47.91 49.66
2019-12-14 13:00:00 64.17 56.12 60.46 33.3 29.21 31.25 14.39 7.99 254.8 0.0 1.988831 53.78 51.33 52.66
2019-12-14 14:00:00 66.79 63.5 65.5 29.45 25.38 26.91 22.97 13.33 254.1 0.0 1.7815 55.26 53.78 54.64
2019-12-14 15:00:00 66.72 65.25 65.93 27.02 25.28 26.11 26.71 17.65 265.7 0.0 1.317928 55.4 55.26 55.35
2019-12-14 16:00:00 65.44 63.25 64.38 29.45 26.82 27.69 28.14 18.32 259.4 0.0 0.7153714 55.27 54.57 54.95
2019-12-14 17:00:00 63.32 57.06 60.49 36.65 29.41 32.6 15.46 8.22 262.7 0.0 0.1163114 54.57 53.55 54.1
2019-12-14 18:00:00 57.31 52.32 54.88 43.23 36.58 39.84 6.88 3.3 233.1 0.0 0.000335406 53.53 51.96 52.77
2019-12-14 19:00:00 52.5 48.34 50.38 49.83 43.33 46.54 3.49 1.3 108.5 0.0 0.0 51.96 50.4 51.13
2019-12-14 20:00:00 51.55 49.51 50.22 49.53 47.62 48.69 3.66 1.68 192.4 0.0 0.0 50.4 49.12 49.73
2019-12-14 21:00:00 51.42 45.22 48.24 58.41 47.65 53.16 4.56 2.9 258.5 0.0 0.0 49.12 48.06 48.58
2019-12-14 22:00:00 45.71 42.42 43.34 64.65 57.73 62.28 5.81 2.93 154.5 0.0 2.036e-06 48.06 47.08 47.57
2019-12-14 23:00:00 46.29 41.56 43.49 65.54 53.85 61.17 4.38 2.56 162.6 0.0 0.000103859 47.08 46.19 46.62
2019-12-15 00:00:00 46.23 41.93 44.2 61.92 53.72 57.75 6.88 3.14 177.9 0.0 0.000142561 46.19 45.47 45.81

Data is courtesy of the NM Climate Center. DO NOT USE IN LEGAL PROCEEDINGS